createdAt,value
2022-11-18T00:01:47.247Z,8.90
2022-11-18T00:04:14.011Z,8.90
2022-11-18T00:06:40.644Z,8.90
2022-11-18T00:09:07.336Z,8.90
2022-11-18T00:11:52.869Z,9.00
2022-11-18T00:14:19.609Z,9.00
2022-11-18T00:16:46.250Z,9.10
2022-11-18T00:19:12.962Z,9.10
2022-11-18T00:21:39.635Z,9.10
2022-11-18T00:24:06.359Z,9.10
2022-11-18T00:26:33.017Z,9.10
2022-11-18T00:28:59.684Z,9.10
2022-11-18T00:31:26.389Z,9.00
2022-11-18T00:33:53.181Z,9.00
2022-11-18T00:36:19.799Z,9.10
2022-11-18T00:38:46.440Z,9.00
2022-11-18T00:41:13.131Z,8.90
2022-11-18T00:43:39.825Z,8.90
2022-11-18T00:46:06.531Z,8.90
2022-11-18T00:48:33.354Z,8.90
2022-11-18T00:51:00.046Z,8.90
2022-11-18T00:53:26.727Z,8.80
2022-11-18T00:55:53.432Z,8.80
2022-11-18T00:58:20.115Z,8.80
2022-11-18T01:00:46.816Z,8.80
2022-11-18T01:03:13.554Z,8.90
2022-11-18T01:05:40.603Z,8.80
2022-11-18T01:08:07.267Z,8.80
2022-11-18T01:10:33.954Z,8.90
2022-11-18T01:13:19.362Z,8.80
2022-11-18T01:15:46.051Z,8.90
2022-11-18T01:18:12.746Z,8.90
2022-11-18T01:20:39.524Z,8.80
2022-11-18T01:23:06.238Z,8.90
2022-11-18T01:25:32.864Z,8.90
2022-11-18T01:27:59.500Z,8.90
2022-11-18T01:30:26.158Z,8.90
2022-11-18T01:32:52.880Z,8.90
2022-11-18T01:35:19.480Z,9.00
2022-11-18T01:37:46.157Z,8.90
2022-11-18T01:40:12.794Z,8.90
2022-11-18T01:42:39.457Z,8.90
2022-11-18T01:45:09.704Z,8.90
2022-11-18T01:47:36.801Z,8.90
2022-11-18T01:50:03.437Z,9.00
2022-11-18T01:52:30.140Z,9.10
2022-11-18T01:54:56.814Z,9.00
2022-11-18T01:57:23.537Z,9.00
2022-11-18T01:59:50.191Z,8.90
2022-11-18T02:02:16.834Z,8.90
2022-11-18T02:04:43.601Z,8.90
2022-11-18T02:07:10.331Z,8.90
2022-11-18T02:09:37.002Z,8.90
2022-11-18T02:12:03.795Z,8.90
2022-11-18T02:14:30.515Z,8.90
2022-11-18T02:16:57.176Z,8.90
2022-11-18T02:19:23.839Z,8.90
2022-11-18T02:21:50.621Z,8.90
2022-11-18T02:24:17.262Z,8.90
2022-11-18T02:26:43.889Z,8.90
2022-11-18T02:29:10.592Z,8.90
2022-11-18T02:31:37.297Z,8.80
2022-11-18T02:34:03.950Z,8.90
2022-11-18T02:36:30.647Z,8.70
2022-11-18T02:38:57.312Z,8.80
2022-11-18T02:41:23.933Z,8.80
2022-11-18T02:43:50.589Z,8.80
2022-11-18T02:46:17.308Z,8.80
2022-11-18T02:48:44.011Z,8.70
2022-11-18T02:51:10.633Z,8.70
2022-11-18T02:53:37.377Z,8.70
2022-11-18T02:56:04.067Z,8.70
2022-11-18T02:58:30.811Z,8.70
2022-11-18T03:00:57.656Z,8.70
2022-11-18T03:03:24.640Z,8.70
2022-11-18T03:05:51.266Z,8.60
2022-11-18T03:08:18.594Z,8.60
2022-11-18T03:10:45.265Z,8.60
2022-11-18T03:13:11.976Z,8.60
2022-11-18T03:15:38.662Z,8.60
2022-11-18T03:18:05.360Z,8.60
2022-11-18T03:20:32.013Z,8.50
2022-11-18T03:22:58.750Z,8.40
2022-11-18T03:25:25.402Z,8.60
2022-11-18T03:27:52.136Z,8.60
2022-11-18T03:30:18.768Z,8.40
2022-11-18T03:32:45.494Z,8.40
2022-11-18T03:35:12.218Z,8.50
2022-11-18T03:37:38.919Z,8.50
2022-11-18T03:40:05.622Z,8.50
2022-11-18T03:42:32.341Z,8.40
2022-11-18T03:44:59.044Z,8.40
2022-11-18T03:47:25.699Z,8.40
2022-11-18T03:49:53.062Z,8.50
2022-11-18T03:52:19.737Z,8.50
2022-11-18T03:54:46.368Z,8.50
2022-11-18T03:57:13.090Z,8.50
2022-11-18T03:59:39.847Z,8.60
2022-11-18T04:02:06.544Z,8.50
2022-11-18T04:04:33.312Z,8.50
2022-11-18T04:07:00.129Z,8.60
2022-11-18T04:09:26.876Z,8.60
2022-11-18T04:12:02.782Z,8.60
2022-11-18T04:14:29.498Z,8.60
2022-11-18T04:16:56.177Z,8.60
2022-11-18T04:19:23.059Z,8.50
2022-11-18T04:21:49.969Z,8.50
2022-11-18T04:24:16.658Z,8.60
2022-11-18T04:26:43.374Z,8.60
2022-11-18T04:29:10.044Z,8.50
2022-11-18T04:31:36.756Z,8.50
2022-11-18T04:34:03.505Z,8.50
2022-11-18T04:36:30.234Z,8.50
2022-11-18T04:38:56.910Z,8.50
2022-11-18T04:41:43.478Z,8.50
2022-11-18T04:44:13.517Z,8.40
2022-11-18T04:46:40.614Z,8.40
2022-11-18T04:49:07.252Z,8.50
2022-11-18T04:51:33.951Z,8.50
2022-11-18T04:54:00.668Z,8.50
2022-11-18T04:56:27.339Z,8.50
2022-11-18T04:58:54.006Z,8.50
2022-11-18T05:01:20.736Z,8.40
2022-11-18T05:03:50.613Z,8.40
2022-11-18T05:06:17.632Z,8.50
2022-11-18T05:08:44.293Z,8.50
2022-11-18T05:11:29.879Z,8.50
2022-11-18T05:13:56.550Z,8.60
2022-11-18T05:16:23.136Z,8.60
2022-11-18T05:18:49.817Z,8.50
2022-11-18T05:21:18.935Z,8.60
2022-11-18T05:23:45.535Z,8.60
2022-11-18T05:26:12.259Z,8.60
2022-11-18T05:28:38.986Z,8.60
2022-11-18T05:31:05.624Z,8.60
2022-11-18T05:33:32.297Z,8.50
2022-11-18T05:35:58.937Z,8.60
2022-11-18T05:38:25.586Z,8.60
2022-11-18T05:40:52.318Z,8.60
2022-11-18T05:43:19.074Z,8.70
2022-11-18T05:45:45.777Z,8.60
2022-11-18T05:48:12.543Z,8.60
2022-11-18T05:50:39.269Z,8.60
2022-11-18T05:53:05.974Z,8.60
2022-11-18T05:55:33.227Z,8.60
2022-11-18T05:57:59.880Z,8.60
2022-11-18T06:00:26.597Z,8.60
2022-11-18T06:02:53.351Z,8.60
2022-11-18T06:05:20.035Z,8.60
2022-11-18T06:07:46.790Z,8.60
2022-11-18T06:10:13.571Z,8.60
2022-11-18T06:12:42.517Z,8.60
2022-11-18T06:15:09.206Z,8.60
2022-11-18T06:17:35.910Z,8.60
2022-11-18T06:20:02.613Z,8.60
2022-11-18T06:22:29.325Z,8.70
2022-11-18T06:24:56.060Z,8.70
2022-11-18T06:27:22.828Z,8.60
2022-11-18T06:29:49.524Z,8.60
2022-11-18T06:32:16.181Z,8.60
2022-11-18T06:34:42.852Z,8.60
2022-11-18T06:37:09.681Z,8.60
2022-11-18T06:39:36.321Z,8.60
2022-11-18T06:42:03.036Z,8.70
2022-11-18T06:44:29.820Z,8.70
2022-11-18T06:46:56.425Z,8.70
2022-11-18T06:49:23.111Z,8.70
2022-11-18T06:51:50.001Z,8.70
2022-11-18T06:54:16.699Z,8.70
2022-11-18T06:56:43.407Z,8.60
2022-11-18T06:59:10.215Z,8.60
2022-11-18T07:01:36.974Z,8.60
2022-11-18T07:04:03.751Z,8.60
2022-11-18T07:06:30.528Z,8.70
2022-11-18T07:08:57.286Z,8.60
2022-11-18T07:11:24.224Z,8.60
2022-11-18T07:13:50.924Z,8.70
2022-11-18T07:16:17.703Z,8.70
2022-11-18T07:18:44.433Z,8.70
2022-11-18T07:21:11.588Z,8.60
2022-11-18T07:23:38.338Z,8.50
2022-11-18T07:26:05.074Z,8.50
2022-11-18T07:28:31.760Z,8.50
2022-11-18T07:30:58.554Z,8.50
2022-11-18T07:33:25.283Z,8.40
2022-11-18T07:35:51.958Z,8.40
2022-11-18T07:38:18.991Z,8.40
2022-11-18T07:40:45.629Z,8.30
2022-11-18T07:43:12.424Z,8.40
2022-11-18T07:45:39.122Z,8.30
2022-11-18T07:48:05.903Z,8.40
2022-11-18T07:50:32.682Z,8.30
2022-11-18T07:52:59.585Z,8.30
2022-11-18T07:55:31.909Z,8.30
2022-11-18T07:57:58.981Z,8.40
2022-11-18T08:00:25.756Z,8.30
2022-11-18T08:02:52.437Z,8.40
2022-11-18T08:05:27.049Z,8.50
2022-11-18T08:07:53.775Z,8.50
2022-11-18T08:10:20.757Z,8.60
2022-11-18T08:12:47.431Z,8.60
2022-11-18T08:15:14.139Z,8.60
2022-11-18T08:17:40.894Z,8.60
2022-11-18T08:20:07.668Z,8.60
2022-11-18T08:22:34.520Z,8.60
2022-11-18T08:25:01.137Z,8.70
2022-11-18T08:27:27.967Z,8.70
2022-11-18T08:29:54.802Z,8.60
2022-11-18T08:32:21.593Z,8.70
2022-11-18T08:34:48.488Z,8.70
2022-11-18T08:37:15.203Z,8.70
2022-11-18T08:39:42.083Z,8.70
2022-11-18T08:42:08.818Z,8.70
2022-11-18T08:44:35.570Z,8.80
2022-11-18T08:47:02.605Z,8.80
2022-11-18T08:49:32.405Z,8.80
2022-11-18T08:51:59.329Z,8.90
2022-11-18T08:54:25.989Z,8.90
2022-11-18T08:56:52.681Z,8.90
2022-11-18T08:59:19.668Z,8.90
2022-11-18T09:01:46.628Z,9.00
2022-11-18T09:04:13.439Z,9.00
2022-11-18T09:06:40.412Z,9.00
2022-11-18T09:09:07.417Z,9.00
2022-11-18T09:11:34.511Z,9.00
2022-11-18T09:14:53.400Z,9.10
2022-11-18T09:16:48.043Z,9.10
2022-11-18T09:22:01.437Z,9.10
2022-11-18T09:24:28.197Z,9.10
2022-11-18T09:26:54.869Z,9.10
2022-11-18T09:29:25.639Z,9.10
2022-11-18T09:31:52.454Z,9.10
2022-11-18T09:34:19.507Z,9.10
2022-11-18T09:36:46.557Z,9.20
2022-11-18T09:39:13.260Z,9.20
2022-11-18T09:41:39.929Z,9.20
2022-11-18T09:44:06.852Z,9.20
2022-11-18T09:46:33.609Z,9.30
2022-11-18T09:49:16.235Z,9.30
2022-11-18T09:51:43.343Z,9.30
2022-11-18T09:54:10.102Z,9.30
2022-11-18T09:56:37.013Z,9.40
2022-11-18T09:59:03.710Z,9.40
2022-11-18T10:01:30.534Z,9.40
2022-11-18T10:03:57.276Z,9.40
2022-11-18T10:06:24.120Z,9.50
2022-11-18T10:08:51.083Z,9.50
2022-11-18T10:11:17.760Z,9.50
2022-11-18T10:13:44.409Z,9.60
2022-11-18T10:16:11.054Z,9.70
2022-11-18T10:18:59.215Z,9.70
2022-11-18T10:21:24.375Z,9.80
2022-11-18T10:23:52.784Z,9.80
2022-11-18T10:26:19.603Z,9.90
2022-11-18T10:28:46.281Z,9.90
2022-11-18T10:31:12.965Z,9.90
2022-11-18T10:33:39.600Z,9.80
2022-11-18T10:36:06.335Z,9.90
2022-11-18T10:38:33.034Z,10.00
2022-11-18T10:40:59.800Z,10.00
2022-11-18T10:43:26.504Z,10.00
2022-11-18T10:45:53.322Z,10.10
2022-11-18T10:48:20.454Z,10.10
2022-11-18T10:50:51.880Z,10.20
2022-11-18T10:53:21.704Z,10.20
2022-11-18T10:55:48.357Z,10.30
2022-11-18T10:58:16.426Z,10.30
2022-11-18T11:00:43.347Z,10.30
2022-11-18T11:03:09.998Z,10.40
2022-11-18T11:05:36.662Z,10.40
2022-11-18T11:08:29.141Z,10.40
2022-11-18T11:10:52.794Z,10.40
2022-11-18T11:13:19.642Z,10.50
2022-11-18T11:15:46.378Z,10.50
2022-11-18T11:18:32.052Z,10.60
2022-11-18T11:20:58.872Z,10.50
2022-11-18T11:23:25.530Z,10.50
2022-11-18T11:28:38.916Z,10.60
2022-11-18T11:31:05.558Z,10.80
2022-11-18T11:33:32.429Z,10.80
2022-11-18T11:35:59.159Z,10.90
2022-11-18T11:38:25.798Z,10.90
2022-11-18T11:40:52.620Z,10.90
2022-11-18T11:43:19.379Z,11.00
2022-11-18T11:45:46.103Z,11.10
2022-11-18T11:48:12.709Z,11.10
2022-11-18T11:51:01.604Z,11.10
2022-11-18T11:53:30.566Z,11.10
2022-11-18T11:55:57.252Z,11.00
2022-11-18T11:58:23.929Z,11.00
2022-11-18T12:00:50.624Z,11.10
2022-11-18T12:03:17.354Z,11.10
2022-11-18T12:05:44.448Z,11.10
2022-11-18T12:08:11.162Z,11.10
2022-11-18T12:10:38.022Z,11.10
2022-11-18T12:13:08.880Z,11.20
2022-11-18T12:15:35.485Z,11.20
2022-11-18T12:18:02.435Z,11.30
2022-11-18T12:20:29.506Z,11.30
2022-11-18T12:22:56.147Z,11.40
2022-11-18T12:25:22.850Z,11.30
2022-11-18T12:27:51.173Z,11.30
2022-11-18T12:30:20.421Z,11.40
2022-11-18T12:32:47.155Z,11.30
2022-11-18T12:35:13.765Z,11.30
2022-11-18T12:37:40.441Z,11.40
2022-11-18T12:40:07.101Z,11.40
2022-11-18T12:42:52.591Z,11.40
2022-11-18T12:45:19.408Z,11.60
2022-11-18T12:47:46.593Z,11.50
2022-11-18T12:50:13.280Z,11.50
2022-11-18T12:52:39.929Z,11.50
2022-11-18T12:55:06.553Z,11.60
2022-11-18T12:57:33.229Z,11.70
2022-11-18T12:59:59.864Z,11.70
2022-11-18T13:02:26.606Z,11.70
2022-11-18T13:04:53.342Z,11.80
2022-11-18T13:07:38.975Z,11.70
2022-11-18T13:10:05.663Z,11.70
2022-11-18T13:12:32.590Z,11.70
2022-11-18T13:15:18.006Z,11.80
2022-11-18T13:17:58.794Z,11.80
2022-11-18T13:20:27.480Z,11.90
2022-11-18T13:23:12.892Z,11.80
2022-11-18T13:25:39.673Z,11.80
2022-11-18T13:28:06.344Z,11.80
2022-11-18T13:30:33.121Z,11.80
2022-11-18T13:32:59.916Z,11.80
2022-11-18T13:35:29.182Z,11.80
2022-11-18T13:37:55.807Z,11.90
2022-11-18T13:40:22.454Z,11.90
2022-11-18T13:42:49.141Z,11.80
2022-11-18T13:45:16.014Z,11.70
2022-11-18T13:47:42.638Z,11.80
2022-11-18T13:50:09.363Z,11.80
2022-11-18T13:52:36.037Z,11.70
2022-11-18T13:55:02.727Z,11.80
2022-11-18T13:57:29.367Z,11.70
2022-11-18T13:59:56.075Z,11.70
2022-11-18T14:02:22.827Z,11.70
2022-11-18T14:04:49.459Z,11.60
2022-11-18T14:07:16.131Z,11.70
2022-11-18T14:09:42.850Z,11.70
2022-11-18T14:12:09.483Z,11.60
2022-11-18T14:14:36.063Z,11.60
2022-11-18T14:17:02.704Z,11.50
2022-11-18T14:19:29.798Z,11.60
2022-11-18T14:21:56.435Z,11.60
2022-11-18T14:24:23.414Z,11.50
2022-11-18T14:26:50.180Z,11.50
2022-11-18T14:29:21.045Z,11.50
2022-11-18T14:31:48.034Z,11.60
2022-11-18T14:34:14.692Z,11.60
2022-11-18T14:36:41.373Z,11.50
2022-11-18T14:41:54.635Z,11.50
2022-11-18T14:44:21.310Z,11.50
2022-11-18T14:46:48.005Z,11.50
2022-11-18T14:49:14.920Z,11.50
2022-11-18T14:51:41.622Z,11.40
2022-11-18T14:54:08.317Z,11.50
2022-11-18T14:56:34.968Z,11.40
2022-11-18T14:59:01.572Z,11.40
2022-11-18T15:01:30.925Z,11.30
2022-11-18T15:03:57.923Z,11.40
2022-11-18T15:06:24.839Z,11.40
2022-11-18T15:08:54.394Z,11.40
2022-11-18T15:11:21.036Z,11.40
2022-11-18T15:13:47.903Z,11.30
2022-11-18T15:16:15.399Z,11.30
2022-11-18T15:18:42.007Z,11.30
2022-11-18T15:21:08.764Z,11.30
2022-11-18T15:23:35.329Z,11.30
2022-11-18T15:26:01.953Z,11.20
2022-11-18T15:28:28.707Z,11.30
2022-11-18T15:30:55.423Z,11.20
2022-11-18T15:33:22.006Z,11.30
2022-11-18T15:35:48.934Z,11.20
2022-11-18T15:38:15.578Z,11.20
2022-11-18T15:40:42.279Z,11.20
2022-11-18T15:43:08.930Z,11.10
2022-11-18T15:45:35.558Z,11.10
2022-11-18T15:48:02.429Z,11.10
2022-11-18T15:50:29.315Z,11.10
2022-11-18T15:52:55.926Z,11.10
2022-11-18T15:55:22.792Z,11.10
2022-11-18T15:57:49.509Z,11.10
2022-11-18T16:00:16.129Z,11.10
2022-11-18T16:02:45.233Z,11.10
2022-11-18T16:05:12.077Z,11.10
2022-11-18T16:07:38.796Z,11.10
2022-11-18T16:10:24.217Z,11.10
2022-11-18T16:12:51.009Z,11.00
2022-11-18T16:15:36.425Z,11.00
2022-11-18T16:18:03.064Z,11.00
2022-11-18T16:20:29.778Z,11.00
2022-11-18T16:22:56.557Z,11.00
2022-11-18T16:25:23.461Z,11.00
2022-11-18T16:27:50.132Z,11.00
2022-11-18T16:30:35.570Z,11.00
2022-11-18T16:33:02.393Z,11.00
2022-11-18T16:35:29.135Z,11.10
2022-11-18T16:37:55.850Z,11.00
2022-11-18T16:40:22.561Z,11.00
2022-11-18T16:42:49.663Z,11.00
2022-11-18T16:45:16.482Z,11.00
2022-11-18T16:47:43.631Z,11.00
2022-11-18T16:50:10.300Z,11.00
2022-11-18T16:52:37.020Z,10.90
2022-11-18T16:55:03.703Z,10.90
2022-11-18T16:57:31.372Z,10.90
2022-11-18T16:59:58.189Z,10.90
2022-11-18T17:02:25.221Z,10.90
2022-11-18T17:04:52.311Z,10.90
2022-11-18T17:07:19.068Z,11.00
2022-11-18T17:09:45.851Z,11.00
2022-11-18T17:12:13.032Z,10.90
2022-11-18T17:14:40.721Z,10.90
2022-11-18T17:17:07.633Z,10.80
2022-11-18T17:19:36.732Z,10.90
2022-11-18T17:22:03.419Z,10.90
2022-11-18T17:24:30.436Z,10.80
2022-11-18T17:27:03.512Z,10.80
2022-11-18T17:29:30.272Z,10.80
2022-11-18T17:31:57.008Z,10.90
2022-11-18T17:34:26.819Z,10.80
2022-11-18T17:36:53.715Z,10.80
2022-11-18T17:39:20.907Z,10.80
2022-11-18T17:42:06.713Z,10.80
2022-11-18T17:44:33.412Z,10.80
2022-11-18T17:47:00.139Z,10.80
2022-11-18T17:49:26.820Z,10.70
2022-11-18T17:51:53.465Z,10.70
2022-11-18T17:54:20.580Z,10.70
2022-11-18T17:56:47.654Z,10.70
2022-11-18T17:59:17.733Z,10.60
2022-11-18T18:01:44.726Z,10.70
2022-11-18T18:04:13.744Z,10.70
2022-11-18T18:06:40.502Z,10.70
2022-11-18T18:09:07.159Z,10.70
2022-11-18T18:11:33.790Z,10.60
2022-11-18T18:14:12.841Z,10.60
2022-11-18T18:16:39.596Z,10.60
2022-11-18T18:19:06.407Z,10.60
2022-11-18T18:21:33.119Z,10.70
2022-11-18T18:23:59.898Z,10.60
2022-11-18T18:26:31.311Z,10.60
2022-11-18T18:28:58.659Z,10.50
2022-11-18T18:31:25.350Z,10.50
2022-11-18T18:33:52.067Z,10.60
2022-11-18T18:36:18.717Z,10.60
2022-11-18T18:38:45.285Z,10.50
2022-11-18T18:41:11.906Z,10.40
2022-11-18T18:43:38.728Z,10.40
2022-11-18T18:46:24.172Z,10.40
2022-11-18T18:48:50.835Z,10.30
2022-11-18T18:51:17.455Z,10.30
2022-11-18T18:53:44.131Z,10.30
2022-11-18T18:56:10.782Z,10.30
2022-11-18T18:58:37.611Z,10.40
2022-11-18T19:01:04.415Z,10.30
2022-11-18T19:03:31.110Z,10.30
2022-11-18T19:06:27.779Z,10.20
2022-11-18T19:08:44.578Z,10.30
2022-11-18T19:11:31.282Z,10.30
2022-11-18T19:13:58.102Z,10.20
2022-11-18T19:16:24.705Z,10.20
2022-11-18T19:18:51.348Z,10.20
2022-11-18T19:21:18.115Z,10.10
2022-11-18T19:23:44.758Z,10.20
2022-11-18T19:26:11.347Z,10.10
2022-11-18T19:28:38.025Z,10.10
2022-11-18T19:31:04.682Z,10.10
2022-11-18T19:33:31.491Z,10.10
2022-11-18T19:35:58.186Z,10.10
2022-11-18T19:38:25.038Z,10.10
2022-11-18T19:40:51.635Z,10.10
2022-11-18T19:43:18.387Z,10.10
2022-11-18T19:45:45.117Z,10.10
2022-11-18T19:48:11.812Z,10.00
2022-11-18T19:50:38.467Z,10.10
2022-11-18T19:53:24.985Z,10.10
2022-11-18T19:55:51.733Z,10.10
2022-11-18T19:58:18.414Z,10.00
2022-11-18T20:00:45.091Z,10.10
2022-11-18T20:03:11.804Z,10.10
2022-11-18T20:05:54.121Z,10.00
2022-11-18T20:08:20.813Z,10.00
2022-11-18T20:10:47.391Z,10.10
2022-11-18T20:13:14.517Z,10.00
2022-11-18T20:15:41.265Z,10.00
2022-11-18T20:18:07.975Z,10.00
2022-11-18T20:20:34.723Z,10.00
2022-11-18T20:23:01.607Z,10.00
2022-11-18T20:25:28.441Z,9.90
2022-11-18T20:27:55.096Z,9.90
2022-11-18T20:30:21.774Z,9.90
2022-11-18T20:32:48.371Z,9.90
2022-11-18T20:35:15.043Z,9.80
2022-11-18T20:37:44.737Z,9.80
2022-11-18T20:40:11.758Z,9.80
2022-11-18T20:42:57.143Z,9.90
2022-11-18T20:45:24.324Z,9.90
2022-11-18T20:47:50.964Z,9.90
2022-11-18T20:50:17.569Z,9.90
2022-11-18T20:52:44.226Z,9.90
2022-11-18T20:55:10.915Z,9.90
2022-11-18T20:57:37.807Z,9.80
2022-11-18T21:00:05.088Z,9.80
2022-11-18T21:02:31.749Z,9.80
2022-11-18T21:04:58.394Z,9.80
2022-11-18T21:07:25.295Z,9.90
2022-11-18T21:09:52.064Z,9.90
2022-11-18T21:12:19.154Z,9.80
2022-11-18T21:14:45.816Z,9.80
2022-11-18T21:17:12.543Z,9.80
2022-11-18T21:19:39.242Z,9.80
2022-11-18T21:22:06.013Z,9.80
2022-11-18T21:24:33.062Z,9.70
2022-11-18T21:26:59.745Z,9.70
2022-11-18T21:29:26.414Z,9.70
2022-11-18T21:31:53.150Z,9.70
2022-11-18T21:34:19.790Z,9.70
2022-11-18T21:36:50.362Z,9.70
2022-11-18T21:39:21.248Z,9.70
2022-11-18T21:41:53.696Z,9.70
2022-11-18T21:44:22.115Z,9.80
2022-11-18T21:46:48.753Z,9.80
2022-11-18T21:49:15.348Z,9.70
2022-11-18T21:51:42.128Z,9.70
2022-11-18T21:54:09.067Z,9.70
2022-11-18T21:56:35.734Z,9.70
2022-11-18T21:59:03.038Z,9.70
2022-11-18T22:01:29.712Z,9.70
2022-11-18T22:03:56.410Z,9.60
2022-11-18T22:06:23.035Z,9.60
2022-11-18T22:08:49.655Z,9.60
2022-11-18T22:11:16.547Z,9.60
2022-11-18T22:13:43.189Z,9.60
2022-11-18T22:16:09.826Z,9.60
2022-11-18T22:18:36.501Z,9.50
2022-11-18T22:21:03.192Z,9.50
2022-11-18T22:23:29.944Z,9.50
2022-11-18T22:25:56.740Z,9.40
2022-11-18T22:28:23.671Z,9.40
2022-11-18T22:30:50.417Z,9.40
2022-11-18T22:33:17.039Z,9.30
2022-11-18T22:35:44.127Z,9.40
2022-11-18T22:38:10.796Z,9.40
2022-11-18T22:40:37.456Z,9.30
2022-11-18T22:43:04.119Z,9.30
2022-11-18T22:45:30.809Z,9.30
2022-11-18T22:47:57.460Z,9.30
2022-11-18T22:50:24.104Z,9.30
2022-11-18T22:52:50.778Z,9.30
2022-11-18T22:55:17.459Z,9.30
2022-11-18T22:57:45.039Z,9.20
2022-11-18T23:00:11.869Z,9.20
2022-11-18T23:02:38.719Z,9.20
2022-11-18T23:05:05.451Z,9.20
2022-11-18T23:07:32.185Z,9.20
2022-11-18T23:09:58.953Z,9.10
2022-11-18T23:12:47.690Z,9.10
2022-11-18T23:15:14.613Z,9.10
2022-11-18T23:17:41.324Z,9.10
2022-11-18T23:20:08.016Z,9.10
2022-11-18T23:22:34.909Z,9.10
2022-11-18T23:25:01.633Z,9.10
2022-11-18T23:27:28.280Z,9.10
2022-11-18T23:29:55.068Z,9.00
2022-11-18T23:32:21.754Z,9.00
2022-11-18T23:34:49.263Z,9.00
2022-11-18T23:37:22.165Z,9.00
2022-11-18T23:39:48.922Z,9.00
2022-11-18T23:42:15.962Z,9.00
2022-11-18T23:44:45.899Z,9.00
2022-11-18T23:47:12.583Z,9.00
2022-11-18T23:49:39.277Z,9.00
2022-11-18T23:52:06.056Z,8.90
2022-11-18T23:54:32.714Z,9.00
2022-11-18T23:56:59.341Z,9.00
2022-11-18T23:59:25.977Z,9.00
